Radium Hot Springs, Canada
Current Conditions -  °F | °C
As of 9:00 AM on Thursday 29 Jan 2015 (Local Time) from CYXC Reporting Station
Broken Clouds Broken Clouds  
Wind Chill: 27°   Ceiling: 2600
Heat Index: 27°   Visibility: 25mi
Dew Point: 23°   Wind: 3mph
Humidity: 86%   Direction: 250°WSW
Pressure: 30.44"   Gusts: NA
Location:  50.62°N, 116.08°W
Report Text: CYXC 291600Z 25003KT 25SM BKN026 M03/M05 A3044 RMK SC7 SLP353
Loading
Personal Weather Stations






























Interactive Weather Map New forecast layout! Learn more

10-Day Weather Forecast

Advertisements
Track Severe Weather on mobile